There are no active watches, warnings or advisories for Caledonia (Vermont).

Nearby METAR Reports

 

KCDA - Lyndonville, Vermont, USA
Distance from station: ENE 11mi, 18km
Updated: Thu, 21-Sep-2017 1:35pm EDT
Clear
Clear
 Wind from N
Wind: N 7 mph , 11 km/h, Gust: 17 mph , 28 km/h
Temperature: 75°F , 24°C
Dew Point: 46°F , 8°C
Humidity: 36%
Barometer: 30.13 inHg , 1020.3 hPa
Clouds: Clear
Visibility: 10 miles , 16 km
2017/09/21 17:35 KCDA 211735Z AUTO 01006G15KT 10SM CLR 24/08 A3013 RMK AO2 T02410081
K1V4 - St. Johnsbury, Vermont, USA
Distance from station: ESE 12mi, 19km
Updated: Thu, 21-Sep-2017 12:54pm EDT

 
Temperature: 75°F , 24°C
Dew Point: 52°F , 11°C
Humidity: 44%
Barometer: 30.09 inHg , 1019 hPa
2017/09/21 16:54 K1V4 211654Z AUTO 24/11 A3009 RMK AO1 SLP180 T02390111
 
KMVL - Morrisville, Vermont, USA
Distance from station: W 20mi, 31km
Updated: Thu, 21-Sep-2017 12:54pm EDT
Clear
Clear
 Wind from NE
Wind: NE 8 mph , 13 km/h, Gust: 17 mph , 28 km/h
Temperature: 77°F , 25°C
Dew Point: 48°F , 9°C
Humidity: 36%
Barometer: 30.13 inHg , 1020.3 hPa
Clouds: Clear
Visibility: 10 miles , 16 km
2017/09/21 16:54 KMVL 211654Z AUTO 04007G15KT 10SM CLR 25/09 A3013 RMK AO2 SLP201 T02500089 TSNO
KEFK - Newport State, Vermont, USA
Distance from station: N 26mi, 42km
Updated: Thu, 21-Sep-2017 1:35pm EDT
Clear
Clear
 Wind from N
Wind: N 10 mph , 17 km/h, Gust: 17 mph , 28 km/h
Temperature: 72°F , 22°C
Dew Point: 52°F , 11°C
Humidity: 50%
Barometer: 30.14 inHg , 1020.7 hPa
Clouds: Clear
Visibility: 10 miles , 16 km
2017/09/21 17:35 KEFK 211735Z AUTO 35009G15KT 10SM CLR 22/11 A3014 RMK AO2 T02210114
 
KMPV - Montpelier/Barre, Vermont, USA
Distance from station: SW 27mi, 44km
Updated: Thu, 21-Sep-2017 12:51pm EDT
Clear
Clear
 Wind from E
Wind: E 5 mph , 7 km/h
Temperature: 73°F , 23°C
Dew Point: 61°F , 16°C
Humidity: 65%
Barometer: 30.15 inHg , 1021 hPa
Clouds: Clear
Visibility: 10 miles , 16 km
2017/09/21 16:51 KMPV 211651Z AUTO 08004KT 10SM CLR 23/16 A3015 RMK AO2 SLP207 T02280161
KHIE - Whitefield, New Hampshire, USA
Distance from station: ESE 34mi, 55km
Updated: Thu, 21-Sep-2017 12:52pm EDT
Clear
Clear
 Wind from ENE
Wind: ENE 9 mph , 15 km/h
Temperature: 73°F , 23°C
Dew Point: 52°F , 11°C
Humidity: 47%
Barometer: 30.12 inHg , 1020 hPa
Clouds: Clear
Visibility: 10 miles , 16 km
2017/09/21 16:52 KHIE 211652Z AUTO 07008KT 10SM CLR 23/11 A3012 RMK AO2 SLP200 T02280106
 
KBTV - Burlington, Vermont, USA
Distance from station: W 46mi, 74km
Updated: Thu, 21-Sep-2017 12:54pm EDT
Partly cloudy
Partly cloudy
 Wind from W
Wind: W 8 mph , 13 km/h
Temperature: 73°F , 23°C
Dew Point: 61°F , 16°C
Humidity: 65%
Barometer: 30.11 inHg , 1019.6 hPa
Clouds: Partly cloudy
Visibility: 10 miles , 16 km
Cloud details: Few Clouds 3500 ft
Few Clouds 10000 ft
Partly cloudy 20000 ft
2017/09/21 16:54 KBTV 211654Z 28007KT 10SM FEW035 FEW100 SCT200 23/16 A3011 RMK AO2 SLP194 T02330156
CWFQ - Frelighsburg, Quebec, Canada
Distance from station: NW 47mi, 75km
Updated: Thu, 21-Sep-2017 1:00pm EDT

 Wind from NNE
Wind: NNE 8 mph , 13 km/h
Temperature: 75°F , 24°C
Dew Point: 54°F , 12°C
Humidity: 47%
2017/09/21 17:00 CWFQ 211700Z AUTO 03007KT 24/12 RMK AO1 SLP197 T02390124 58004
 
KMWN - Mount Washington, New Hampshire, USA
Distance from station: ESE 49mi, 79km
Updated: Thu, 21-Sep-2017 7:51am EDT
NOT Current

 Wind from NE
Wind: NE 23 mph , 37 km/h
Visibility: 75 miles , 120 km
2017/09/21 11:51 KMWN 211151Z 04020KT 75SM BKN/// FEW100 FEW140 SCT160 BKN180 10/06 RMK TPS LWR BKN050 10099 20068
KBML - Berlin, New Hampshire, USA
Distance from station: E 51mi, 83km
Updated: Thu, 21-Sep-2017 12:52pm EDT
Clear
Clear
 Wind from NNE
Wind: NNE 8 mph , 13 km/h
Temperature: 72°F , 22°C
Dew Point: 50°F , 10°C
Humidity: 47%
Barometer: 30.14 inHg , 1020.7 hPa
Clouds: Clear
Visibility: 10 miles , 16 km
2017/09/21 16:52 KBML 211652Z AUTO 02007KT 10SM CLR 22/10 A3014 RMK AO2 SLP206 T02220100
 
KFSO - Highgate, Vermont, USA
Distance from station: NW 52mi, 84km
Updated: Thu, 21-Sep-2017 1:35pm EDT
Clear
Clear
 Wind from NW
Wind: NW 5 mph , 7 km/h
Temperature: 75°F , 24°C
Dew Point: 59°F , 15°C
Humidity: 57%
Barometer: 30.11 inHg , 1019.6 hPa
Clouds: Clear
Visibility: 10 miles , 16 km
2017/09/21 17:35 KFSO 211735Z AUTO 32004KT 10SM CLR 24/15 A3011 RMK AO2 T02350146
CWTT - Lac Memphremagog, Quebec, Canada
Distance from station: N 53mi, 85km
Updated: Thu, 21-Sep-2017 1:00pm EDT

 Wind from E
Wind: E 7 mph , 11 km/h
Temperature: 73°F , 23°C
Dew Point: 45°F , 7°C
Humidity: 36%
2017/09/21 17:00 CWTT 211700Z AUTO 09006KT 23/07 RMK AO1 T02260074
 
K1P1 - Plymouth, New Hampshire, USA
Distance from station: SSE 55mi, 88km
Updated: Thu, 21-Sep-2017 1:35pm EDT
Clear
Clear
 Wind from calm
Wind: Calm
Temperature: 77°F , 25°C
Dew Point: 54°F , 12°C
Humidity: 44%
Barometer: 30.06 inHg , 1017.9 hPa
Clouds: Clear
Visibility: 10 miles , 16 km
2017/09/21 17:35 K1P1 211735Z AUTO 00000KT 10SM CLR 25/12 A3006 RMK AO2 T02450115
KLEB - Lebanon, New Hampshire, USA
Distance from station: S 60mi, 97km
Updated: Thu, 21-Sep-2017 12:53pm EDT
Few Clouds
Few Clouds
 Wind from NNW
Wind: NNW 12 mph , 19 km/h
Temperature: 79°F , 26°C
Dew Point: 61°F , 16°C
Humidity: 54%
Barometer: 30.07 inHg , 1018.3 hPa
Clouds: Few Clouds
Visibility: 10 miles , 16 km
Cloud details: Few Clouds 2900 ft
2017/09/21 16:53 KLEB 211653Z 34010KT 10SM FEW029 26/16 A3007 RMK AO2 SLP174 T02560156
 
KPBG - Plattsburgh Afb, New York, USA
Distance from station: W 62mi, 100km
Updated: Thu, 21-Sep-2017 12:53pm EDT
Clear
Clear
 Wind from varies
Wind: varies 7 mph , 11 km/h
Temperature: 73°F , 23°C
Dew Point: 57°F , 14°C
Humidity: 57%
Barometer: 30.12 inHg , 1020 hPa
Clouds: Clear
Visibility: 10 miles , 16 km
2017/09/21 16:53 KPBG 211653Z AUTO VRB06KT 10SM CLR 23/14 A3012 RMK AO2 SLP199 T02280144
CWQH - Lennoxville, Quebec, Canada
Distance from station: NNE 63mi, 101km
Updated: Thu, 21-Sep-2017 1:00pm EDT

 Wind from NE
Wind: NE 8 mph , 13 km/h
Temperature: 73°F , 23°C
Dew Point: 46°F , 8°C
Humidity: 38%
2017/09/21 17:00 CWQH 211700Z AUTO 05007KT 23/08 RMK AO1 T02300081
 
CMGB - Granby, Quebec, Canada
Distance from station: NNW 65mi, 105km
Updated: Thu, 21-Sep-2017 1:30pm EDT

 Wind from E
Wind: E 5 mph , 7 km/h
Temperature: 77°F , 25°C
Dew Point: 46°F , 8°C
Humidity: 34%
2017/09/21 17:30 CMGB 211730Z AUTO 08004KT 25/08 RMK AO1 SLP198 T02510083 58004
CYSC - Sherbrooke, Quebec, Canada
Distance from station: NNE 69mi, 112km
Updated: Thu, 21-Sep-2017 1:00pm EDT
Clear
Clear
 Wind from ENE
Wind: ENE 9 mph , 15 km/h
Temperature: 73°F , 23°C
Dew Point: 48°F , 9°C
Humidity: 41%
Barometer: 30.14 inHg , 1020.7 hPa
Clouds: Clear
Visibility: 9 miles , 14 km
2017/09/21 17:00 CYSC 211700Z AUTO 07008KT 010V100 9SM CLR 23/09 A3014 RMK SLP207 DENSITY ALT 1600FT
 
KIZG - Fryeburg, Maine, USA
Distance from station: ESE 72mi, 117km
Updated: Thu, 21-Sep-2017 12:54pm EDT

 Wind from NE
Wind: NE 10 mph , 17 km/h, Gust: 20 mph , 31 km/h
Temperature: 73°F , 23°C
Dew Point: 48°F , 9°C
Humidity: 41%
Barometer: 30.12 inHg , 1020 hPa
Visibility: 10 miles , 16 km
2017/09/21 16:54 KIZG 211654Z AUTO 04009G17KT 10SM 23/09 A3012 RMK AO2 SLP197 T02280089 $